createdAt,value
2019-02-20T00:02:01.944Z,9.47
2019-02-20T00:04:34.965Z,8.67
2019-02-20T00:07:07.807Z,8.70
2019-02-20T00:09:36.887Z,8.30
2019-02-20T00:12:07.187Z,8.57
2019-02-20T00:14:38.544Z,9.87
2019-02-20T00:17:07.664Z,9.53
2019-02-20T00:19:36.780Z,9.27
2019-02-20T00:22:08.035Z,9.53
2019-02-20T00:24:37.241Z,9.53
2019-02-20T00:27:06.363Z,8.87
2019-02-20T00:29:37.530Z,9.27
2019-02-20T00:32:07.519Z,8.20
2019-02-20T00:34:38.718Z,8.03
2019-02-20T00:37:07.816Z,7.63
2019-02-20T00:39:36.928Z,8.27
2019-02-20T00:42:06.061Z,7.50
2019-02-20T00:45:07.120Z,8.23
2019-02-20T00:47:49.554Z,7.83
2019-02-20T00:50:22.233Z,7.77
2019-02-20T00:53:11.169Z,8.23
2019-02-20T00:55:40.270Z,8.00
2019-02-20T00:58:09.387Z,8.63
2019-02-20T01:00:43.348Z,8.37
2019-02-20T01:03:15.585Z,7.90
2019-02-20T01:05:44.641Z,9.03
2019-02-20T01:08:15.288Z,7.97
2019-02-20T01:10:44.453Z,7.37
2019-02-20T01:13:13.601Z,7.67
2019-02-20T01:15:42.793Z,7.80
2019-02-20T01:18:11.910Z,7.07
2019-02-20T01:20:41.037Z,8.07
2019-02-20T01:23:10.117Z,8.53
2019-02-20T01:25:43.082Z,7.97
2019-02-20T01:28:12.663Z,7.87
2019-02-20T01:30:43.380Z,8.90
2019-02-20T01:33:16.557Z,8.43
2019-02-20T01:35:47.322Z,8.13
2019-02-20T01:38:18.245Z,7.80
2019-02-20T01:40:48.512Z,7.97
2019-02-20T01:43:17.801Z,7.23
2019-02-20T01:45:46.918Z,7.77
2019-02-20T01:48:15.972Z,8.37
2019-02-20T01:50:45.059Z,7.77
2019-02-20T01:53:14.373Z,7.43
2019-02-20T01:55:44.092Z,8.10
2019-02-20T01:58:13.406Z,7.47
2019-02-20T02:00:42.611Z,7.03
2019-02-20T02:03:16.055Z,6.87
2019-02-20T02:05:45.264Z,8.37
2019-02-20T02:08:16.972Z,7.27
2019-02-20T02:10:46.172Z,6.77
2019-02-20T02:13:16.815Z,6.53
2019-02-20T02:15:47.133Z,7.47
2019-02-20T02:18:16.341Z,7.97
2019-02-20T02:20:45.480Z,7.53
2019-02-20T02:23:19.876Z,7.43
2019-02-20T02:25:47.789Z,7.70
2019-02-20T02:28:18.029Z,7.53
2019-02-20T02:30:49.137Z,7.63
2019-02-20T02:33:18.339Z,8.47
2019-02-20T02:35:49.875Z,7.20
2019-02-20T02:38:18.959Z,7.07
2019-02-20T02:40:49.329Z,6.80
2019-02-20T02:43:18.385Z,6.33
2019-02-20T02:45:47.507Z,6.67
2019-02-20T02:48:16.587Z,7.30
2019-02-20T02:50:45.807Z,7.13
2019-02-20T02:53:14.962Z,6.43
2019-02-20T02:55:44.100Z,6.93
2019-02-20T02:58:15.456Z,6.70
2019-02-20T03:00:44.533Z,6.60
2019-02-20T03:03:13.663Z,7.13
2019-02-20T03:05:42.835Z,7.00
2019-02-20T03:08:11.943Z,6.67
2019-02-20T03:10:41.091Z,6.67
2019-02-20T03:13:11.216Z,7.03
2019-02-20T03:15:40.330Z,7.30
2019-02-20T03:18:09.429Z,6.60
2019-02-20T03:20:38.493Z,6.87
2019-02-20T03:23:07.673Z,6.63
2019-02-20T03:25:36.736Z,7.80
2019-02-20T03:28:05.881Z,6.60
2019-02-20T03:30:34.985Z,6.97
2019-02-20T03:33:04.119Z,6.47
2019-02-20T03:35:35.586Z,6.70
2019-02-20T03:38:07.015Z,6.40
2019-02-20T03:40:37.374Z,7.50
2019-02-20T03:43:06.516Z,6.47
2019-02-20T03:45:35.564Z,7.50
2019-02-20T03:48:04.708Z,6.80
2019-02-20T03:50:33.807Z,6.87
2019-02-20T03:53:05.140Z,7.57
2019-02-20T03:55:34.210Z,6.80
2019-02-20T03:58:04.404Z,6.97
2019-02-20T04:00:33.809Z,7.80
2019-02-20T04:03:02.949Z,7.97
2019-02-20T04:05:32.055Z,6.67
2019-02-20T04:08:01.207Z,6.87
2019-02-20T04:10:30.275Z,6.50
2019-02-20T04:12:59.358Z,6.50
2019-02-20T04:15:28.454Z,6.87
2019-02-20T04:17:57.578Z,6.53
2019-02-20T04:20:26.697Z,7.00
2019-02-20T04:22:55.859Z,6.60
2019-02-20T04:25:28.715Z,6.10
2019-02-20T04:28:00.261Z,8.20
2019-02-20T04:30:30.458Z,8.30
2019-02-20T04:32:59.591Z,9.20
2019-02-20T04:35:28.643Z,8.70
2019-02-20T04:38:01.713Z,9.60
2019-02-20T04:40:32.152Z,9.20
2019-02-20T04:43:01.317Z,8.73
2019-02-20T04:45:30.535Z,9.97
2019-02-20T04:48:00.231Z,8.97
2019-02-20T04:50:29.318Z,10.20
2019-02-20T04:52:58.431Z,12.10
2019-02-20T04:55:27.570Z,12.17
2019-02-20T04:58:19.763Z,13.63
2019-02-20T05:00:50.278Z,11.93
2019-02-20T05:03:19.500Z,12.17
2019-02-20T05:05:48.574Z,11.00
2019-02-20T05:08:17.661Z,13.57
2019-02-20T05:10:46.730Z,12.57
2019-02-20T05:13:15.877Z,10.73
2019-02-20T05:15:44.983Z,11.00
2019-02-20T05:18:16.427Z,11.23
2019-02-20T05:20:45.527Z,10.83
2019-02-20T05:23:14.624Z,11.33
2019-02-20T05:25:43.739Z,11.37
2019-02-20T05:28:12.817Z,11.97
2019-02-20T05:30:41.912Z,11.97
2019-02-20T05:33:11.220Z,12.20
2019-02-20T05:35:40.337Z,12.33
2019-02-20T05:38:09.442Z,11.67
2019-02-20T05:40:38.579Z,11.50
2019-02-20T05:43:10.025Z,11.67
2019-02-20T05:45:39.192Z,12.77
2019-02-20T05:48:08.437Z,10.97
2019-02-20T05:50:37.537Z,12.13
2019-02-20T05:53:06.756Z,11.07
2019-02-20T05:55:35.877Z,12.13
2019-02-20T05:58:04.942Z,12.03
2019-02-20T06:00:34.021Z,12.30
2019-02-20T06:03:04.864Z,13.03
2019-02-20T06:05:33.906Z,13.20
2019-02-20T06:08:03.024Z,12.10
2019-02-20T06:10:32.267Z,11.53
2019-02-20T06:13:05.306Z,12.37
2019-02-20T06:15:35.599Z,12.50
2019-02-20T06:18:06.988Z,13.00
2019-02-20T06:20:37.644Z,13.07
2019-02-20T06:23:06.731Z,12.30
2019-02-20T06:25:35.886Z,13.60
2019-02-20T06:28:04.966Z,13.83
2019-02-20T06:30:36.363Z,14.70
2019-02-20T06:33:05.423Z,13.63
2019-02-20T06:35:34.613Z,12.80
2019-02-20T06:38:03.687Z,13.40
2019-02-20T06:40:32.824Z,13.97
2019-02-20T06:43:01.958Z,14.47
2019-02-20T06:45:33.105Z,13.60
2019-02-20T06:48:02.137Z,14.57
2019-02-20T06:50:32.375Z,14.53
2019-02-20T06:53:01.390Z,14.67
2019-02-20T06:55:30.569Z,14.93
2019-02-20T06:57:59.671Z,15.63
2019-02-20T07:00:31.052Z,15.47
2019-02-20T07:03:00.129Z,15.33
2019-02-20T07:05:33.832Z,16.17
2019-02-20T07:08:55.368Z,17.57
2019-02-20T07:12:17.097Z,14.97
2019-02-20T07:15:32.346Z,15.20
2019-02-20T07:18:40.198Z,14.73
2019-02-20T07:21:45.985Z,18.40
2019-02-20T07:24:29.018Z,22.73
2019-02-20T07:27:20.219Z,21.93
2019-02-20T07:30:02.829Z,19.57
2019-02-20T07:32:32.721Z,18.57
2019-02-20T07:35:01.858Z,17.67
2019-02-20T07:37:33.241Z,18.07
2019-02-20T07:40:06.706Z,18.67
2019-02-20T07:42:36.139Z,18.73
2019-02-20T07:45:05.586Z,45.17
2019-02-20T07:47:34.818Z,36.90
2019-02-20T07:50:03.963Z,26.80
2019-02-20T07:52:33.069Z,22.33
2019-02-20T07:55:02.172Z,20.87
2019-02-20T07:57:31.751Z,22.00
2019-02-20T08:00:02.907Z,19.67
2019-02-20T08:02:32.320Z,17.77
2019-02-20T08:05:01.412Z,19.17
2019-02-20T08:07:32.125Z,18.97
2019-02-20T08:10:03.751Z,18.83
2019-02-20T08:12:32.872Z,17.10
2019-02-20T08:15:03.821Z,18.50
2019-02-20T08:17:32.942Z,19.10
2019-02-20T08:20:02.926Z,19.50
2019-02-20T08:22:33.319Z,18.97
2019-02-20T08:25:02.501Z,18.20
2019-02-20T08:27:31.656Z,17.83
2019-02-20T08:30:01.990Z,18.00
2019-02-20T08:32:31.087Z,18.97
2019-02-20T08:35:00.263Z,17.47
2019-02-20T08:37:29.454Z,16.77
2019-02-20T08:39:58.501Z,17.73
2019-02-20T08:42:27.628Z,17.67
2019-02-20T08:44:56.720Z,18.07
2019-02-20T08:47:25.891Z,16.70
2019-02-20T08:49:54.967Z,15.50
2019-02-20T08:52:24.072Z,15.40
2019-02-20T08:54:53.085Z,15.20
2019-02-20T08:57:22.249Z,15.40
2019-02-20T08:59:51.825Z,16.37
2019-02-20T09:02:20.926Z,15.63
2019-02-20T09:04:50.007Z,14.77
2019-02-20T09:07:19.220Z,15.60
2019-02-20T09:09:48.324Z,14.73
2019-02-20T09:12:17.485Z,14.13
2019-02-20T09:14:46.571Z,13.20
2019-02-20T09:17:15.597Z,13.60
2019-02-20T09:19:44.697Z,13.37
2019-02-20T09:22:13.771Z,14.60
2019-02-20T09:24:42.910Z,13.37
2019-02-20T09:27:13.120Z,14.07
2019-02-20T09:29:42.255Z,14.20
2019-02-20T09:32:11.722Z,14.70
2019-02-20T09:34:40.859Z,14.33
2019-02-20T09:37:09.922Z,14.83
2019-02-20T09:39:39.322Z,15.67
2019-02-20T09:42:13.536Z,15.57
2019-02-20T09:44:51.625Z,13.80
2019-02-20T09:47:22.746Z,13.60
2019-02-20T09:49:52.925Z,15.37
2019-02-20T09:52:23.637Z,13.90
2019-02-20T09:54:52.702Z,12.80
2019-02-20T09:57:21.804Z,12.93
2019-02-20T09:59:53.222Z,12.40
2019-02-20T10:02:22.283Z,13.23
2019-02-20T10:04:54.996Z,13.63
2019-02-20T10:07:24.083Z,11.87
2019-02-20T10:09:54.330Z,13.67
2019-02-20T10:12:23.382Z,12.17
2019-02-20T10:14:52.545Z,13.30
2019-02-20T10:17:21.594Z,12.83
2019-02-20T10:19:50.707Z,13.60
2019-02-20T10:22:19.786Z,12.33
2019-02-20T10:24:48.975Z,11.70
2019-02-20T10:27:18.041Z,11.63
2019-02-20T10:29:47.164Z,12.17
2019-02-20T10:32:16.289Z,12.87
2019-02-20T10:34:45.392Z,11.33
2019-02-20T10:37:14.491Z,14.17
2019-02-20T10:39:43.555Z,11.20
2019-02-20T10:42:12.679Z,10.93
2019-02-20T10:44:41.818Z,11.10
2019-02-20T10:47:10.982Z,35.83
2019-02-20T10:49:41.195Z,15.93
2019-02-20T10:52:10.728Z,11.30
2019-02-20T10:54:39.842Z,11.07
2019-02-20T10:57:10.426Z,11.70
2019-02-20T10:59:41.395Z,11.77
2019-02-20T11:02:10.725Z,10.90
2019-02-20T11:04:39.756Z,11.53
2019-02-20T11:07:08.978Z,10.93
2019-02-20T11:09:38.118Z,10.80
2019-02-20T11:12:07.258Z,12.37
2019-02-20T11:14:37.739Z,12.03
2019-02-20T11:17:06.991Z,11.60
2019-02-20T11:19:36.092Z,9.93
2019-02-20T11:22:05.793Z,10.50
2019-02-20T11:24:34.873Z,10.23
2019-02-20T11:27:04.883Z,12.00
2019-02-20T11:29:33.968Z,13.50
2019-02-20T11:32:03.052Z,10.93
2019-02-20T11:34:32.154Z,13.53
2019-02-20T11:37:03.637Z,12.60
2019-02-20T11:39:37.667Z,11.63
2019-02-20T11:42:04.478Z,11.03
2019-02-20T11:44:34.004Z,11.97
2019-02-20T11:47:04.818Z,10.90
2019-02-20T11:49:35.125Z,12.30
2019-02-20T11:52:04.489Z,10.83
2019-02-20T11:54:33.580Z,10.90
2019-02-20T11:57:02.795Z,11.40
2019-02-20T11:59:32.952Z,11.00
2019-02-20T12:02:02.076Z,8.80
2019-02-20T12:04:33.179Z,8.37
2019-02-20T12:07:02.218Z,8.07
2019-02-20T12:09:31.318Z,8.80
2019-02-20T12:12:00.421Z,8.70
2019-02-20T12:14:29.483Z,9.43
2019-02-20T12:16:58.564Z,7.97
2019-02-20T12:19:30.877Z,8.17
2019-02-20T12:21:59.963Z,8.03
2019-02-20T12:24:29.056Z,7.97
2019-02-20T12:26:58.118Z,9.07
2019-02-20T12:29:27.215Z,10.90
2019-02-20T12:31:56.312Z,11.17
2019-02-20T12:34:25.429Z,8.40
2019-02-20T12:36:54.497Z,9.27
2019-02-20T12:39:23.631Z,8.23
2019-02-20T12:41:57.874Z,8.47
2019-02-20T12:44:26.996Z,7.60
2019-02-20T12:46:56.072Z,7.40
2019-02-20T12:49:25.148Z,7.60
2019-02-20T12:51:55.676Z,7.63
2019-02-20T12:54:25.898Z,8.13
2019-02-20T12:56:55.225Z,6.67
2019-02-20T12:59:24.332Z,8.60
2019-02-20T13:01:53.600Z,6.30
2019-02-20T13:04:24.726Z,6.23
2019-02-20T13:06:59.480Z,6.83
2019-02-20T13:09:25.238Z,5.73
2019-02-20T13:11:55.617Z,4.93
2019-02-20T13:14:24.712Z,5.67
2019-02-20T13:16:53.785Z,5.87
2019-02-20T13:19:26.952Z,6.07
2019-02-20T13:21:57.361Z,5.53
2019-02-20T13:24:26.397Z,5.70
2019-02-20T13:26:55.443Z,5.73
2019-02-20T13:29:24.505Z,6.13
2019-02-20T13:31:53.562Z,6.23
2019-02-20T13:34:22.644Z,6.20
2019-02-20T13:36:51.717Z,6.17
2019-02-20T13:39:20.892Z,6.20
2019-02-20T13:41:52.553Z,6.27
2019-02-20T13:44:21.647Z,6.33
2019-02-20T13:46:50.764Z,5.87
2019-02-20T13:49:19.903Z,6.70
2019-02-20T13:51:48.953Z,6.67
2019-02-20T13:54:18.068Z,6.37
2019-02-20T13:56:47.957Z,6.40
2019-02-20T13:59:17.063Z,6.17
2019-02-20T14:01:47.343Z,5.90
2019-02-20T14:04:16.741Z,7.90
2019-02-20T14:06:45.839Z,6.83
2019-02-20T14:09:15.264Z,6.27
2019-02-20T14:11:44.437Z,6.00
2019-02-20T14:14:14.070Z,5.80
2019-02-20T14:16:43.139Z,5.07
2019-02-20T14:19:12.473Z,5.83
2019-02-20T14:21:41.586Z,5.40
2019-02-20T14:24:10.735Z,4.97
2019-02-20T14:26:39.834Z,4.20
2019-02-20T14:29:08.911Z,4.40
2019-02-20T14:31:38.246Z,4.03
2019-02-20T14:34:09.638Z,3.80
2019-02-20T14:36:38.880Z,3.97
2019-02-20T14:39:08.040Z,4.30
2019-02-20T14:41:37.182Z,4.33
2019-02-20T14:44:06.243Z,5.00
2019-02-20T14:46:36.324Z,5.20
2019-02-20T14:49:09.406Z,5.33
2019-02-20T14:51:38.332Z,15.03
2019-02-20T14:54:07.404Z,5.83
2019-02-20T14:56:36.519Z,7.30
2019-02-20T14:59:07.732Z,5.53
2019-02-20T15:01:36.877Z,6.00
2019-02-20T15:04:05.943Z,5.50
2019-02-20T15:06:34.989Z,5.17
2019-02-20T15:09:05.592Z,5.00
2019-02-20T15:11:34.699Z,4.50
2019-02-20T15:14:03.782Z,4.40
2019-02-20T15:16:36.971Z,3.57
2019-02-20T15:19:06.497Z,4.03
2019-02-20T15:21:36.889Z,3.87
2019-02-20T15:24:06.219Z,3.97
2019-02-20T15:26:35.334Z,3.90
2019-02-20T15:29:04.378Z,3.90
2019-02-20T15:31:37.262Z,4.13
2019-02-20T15:34:06.755Z,3.67
2019-02-20T15:36:35.899Z,3.90
2019-02-20T15:39:05.658Z,3.97
2019-02-20T15:41:36.327Z,4.13
2019-02-20T15:44:09.067Z,5.20
2019-02-20T15:46:40.718Z,4.43
2019-02-20T15:49:09.837Z,4.77
2019-02-20T15:51:39.103Z,5.70
2019-02-20T15:54:08.231Z,5.23
2019-02-20T15:56:37.347Z,5.00
2019-02-20T15:59:07.052Z,5.37
2019-02-20T16:01:36.220Z,5.57
2019-02-20T16:04:05.500Z,5.73
2019-02-20T16:06:34.626Z,5.50
2019-02-20T16:09:04.509Z,5.83
2019-02-20T16:11:33.597Z,5.20
2019-02-20T16:14:02.676Z,6.03
2019-02-20T16:16:31.813Z,5.60
2019-02-20T16:19:00.922Z,5.47
2019-02-20T16:21:30.050Z,5.27
2019-02-20T16:23:59.220Z,5.60
2019-02-20T16:26:28.316Z,5.37
2019-02-20T16:28:57.692Z,5.43
2019-02-20T16:31:44.918Z,5.60
2019-02-20T16:34:15.674Z,6.33
2019-02-20T16:36:45.107Z,6.43
2019-02-20T16:39:15.496Z,7.17
2019-02-20T16:42:04.255Z,6.17
2019-02-20T16:44:33.776Z,6.13
2019-02-20T16:47:02.827Z,6.67
2019-02-20T16:49:32.928Z,5.90
2019-02-20T16:52:05.043Z,5.90
2019-02-20T16:54:34.925Z,5.37
2019-02-20T16:57:06.294Z,5.33
2019-02-20T16:59:35.598Z,4.93
2019-02-20T17:02:07.631Z,4.60
2019-02-20T17:04:36.732Z,4.97
2019-02-20T17:07:08.069Z,5.00
2019-02-20T17:09:39.562Z,4.87
2019-02-20T17:12:08.737Z,5.13
2019-02-20T17:14:37.877Z,6.60
2019-02-20T17:17:07.055Z,9.47
2019-02-20T17:19:36.215Z,9.80
2019-02-20T17:22:07.329Z,9.90
2019-02-20T17:24:41.723Z,9.40
2019-02-20T17:27:12.848Z,8.50
2019-02-20T17:29:42.053Z,6.53
2019-02-20T17:32:12.727Z,6.70
2019-02-20T17:34:41.928Z,6.70
2019-02-20T17:37:11.160Z,7.03
2019-02-20T17:39:40.541Z,6.63
2019-02-20T17:42:09.628Z,7.00
2019-02-20T17:44:38.725Z,7.77
2019-02-20T17:47:07.911Z,7.90
2019-02-20T17:49:38.220Z,7.77
2019-02-20T17:52:09.325Z,8.60
2019-02-20T17:54:41.070Z,8.47
2019-02-20T17:57:12.173Z,7.93
2019-02-20T17:59:41.217Z,9.00
2019-02-20T18:02:11.386Z,9.50
2019-02-20T18:04:58.446Z,8.73
2019-02-20T18:07:49.638Z,7.77
2019-02-20T18:10:14.942Z,7.83
2019-02-20T18:12:45.480Z,8.70
2019-02-20T18:15:22.448Z,9.53
2019-02-20T18:17:52.700Z,8.13
2019-02-20T18:20:25.236Z,8.83
2019-02-20T18:23:00.267Z,8.53
2019-02-20T18:25:30.439Z,8.67
2019-02-20T18:27:59.920Z,9.13
2019-02-20T18:30:38.710Z,9.60
2019-02-20T18:33:08.779Z,8.97
2019-02-20T18:35:41.950Z,9.20
2019-02-20T18:38:11.794Z,10.13
2019-02-20T18:40:42.632Z,8.27
2019-02-20T18:43:12.188Z,8.80
2019-02-20T18:45:41.629Z,8.20
2019-02-20T18:48:14.922Z,8.50
2019-02-20T18:50:45.363Z,8.67
2019-02-20T18:53:14.471Z,8.30
2019-02-20T18:55:43.656Z,7.77
2019-02-20T18:58:12.826Z,8.03
2019-02-20T19:00:42.183Z,7.77
2019-02-20T19:03:14.862Z,9.07
2019-02-20T19:05:43.997Z,15.03
2019-02-20T19:08:41.520Z,22.40
2019-02-20T19:11:40.207Z,22.07
2019-02-20T19:14:52.801Z,14.10
2019-02-20T19:18:13.029Z,10.80
2019-02-20T19:20:49.322Z,8.33
2019-02-20T19:24:10.937Z,8.00
2019-02-20T19:27:30.211Z,8.50
2019-02-20T19:30:40.468Z,9.47
2019-02-20T19:33:46.390Z,9.57
2019-02-20T19:36:58.555Z,8.57
2019-02-20T19:40:01.575Z,8.03
2019-02-20T19:43:10.139Z,7.37
2019-02-20T19:46:26.298Z,8.17
2019-02-20T19:49:45.594Z,8.97
2019-02-20T19:52:47.446Z,8.90
2019-02-20T19:55:30.889Z,9.80
2019-02-20T19:58:24.143Z,9.70
2019-02-20T20:01:39.785Z,8.23
2019-02-20T20:04:24.782Z,8.17
2019-02-20T20:07:27.374Z,8.37
2019-02-20T20:11:02.161Z,8.57
2019-02-20T20:14:05.191Z,8.67
2019-02-20T20:16:59.877Z,8.50
2019-02-20T20:19:45.121Z,8.93
2019-02-20T20:23:07.792Z,8.70
2019-02-20T20:26:11.642Z,8.70
2019-02-20T20:29:26.225Z,8.67
2019-02-20T20:32:21.781Z,8.00
2019-02-20T20:35:54.042Z,9.37
2019-02-20T20:38:45.164Z,7.90
2019-02-20T20:42:04.478Z,8.43
2019-02-20T20:45:02.900Z,8.37
2019-02-20T20:48:11.979Z,11.97
2019-02-20T20:50:47.482Z,10.47
2019-02-20T20:54:01.065Z,14.10
2019-02-20T20:57:01.106Z,11.57
2019-02-20T21:00:26.409Z,12.17
2019-02-20T21:03:02.477Z,10.90
2019-02-20T21:06:11.877Z,10.53
2019-02-20T21:09:10.278Z,12.93
2019-02-20T21:12:22.616Z,14.60
2019-02-20T21:15:08.294Z,18.97
2019-02-20T21:18:11.706Z,14.23
2019-02-20T21:21:20.746Z,12.03
2019-02-20T21:24:54.385Z,11.63
2019-02-20T21:28:05.362Z,10.33
2019-02-20T21:31:03.256Z,8.73
2019-02-20T21:34:14.584Z,9.27
2019-02-20T21:37:15.879Z,9.90
2019-02-20T21:40:18.188Z,9.97
2019-02-20T21:43:08.289Z,10.53
2019-02-20T21:45:50.986Z,9.33
2019-02-20T21:48:58.438Z,9.43
2019-02-20T21:51:57.922Z,8.80
2019-02-20T21:55:05.480Z,9.70
2019-02-20T21:58:21.580Z,9.50
2019-02-20T22:01:20.008Z,9.87
2019-02-20T22:04:27.386Z,8.77
2019-02-20T22:07:43.427Z,8.70
2019-02-20T22:11:11.251Z,9.73
2019-02-20T22:14:38.525Z,9.70
2019-02-20T22:17:27.382Z,9.23
2019-02-20T22:20:32.928Z,8.77
2019-02-20T22:23:29.265Z,10.20
2019-02-20T22:26:35.788Z,10.47
2019-02-20T22:29:49.305Z,10.00
2019-02-20T22:32:46.399Z,10.10
2019-02-20T22:35:36.865Z,10.57
2019-02-20T22:38:42.858Z,11.27
2019-02-20T22:41:19.391Z,10.27
2019-02-20T22:44:26.104Z,9.27
2019-02-20T22:47:11.063Z,9.27
2019-02-20T22:50:15.054Z,9.10
2019-02-20T22:53:23.299Z,9.10
2019-02-20T22:56:48.797Z,9.43
2019-02-20T23:00:02.645Z,9.40
2019-02-20T23:03:28.306Z,9.33
2019-02-20T23:06:33.299Z,9.50
2019-02-20T23:09:49.728Z,11.77
2019-02-20T23:12:39.690Z,10.23
2019-02-20T23:15:08.813Z,9.73
2019-02-20T23:17:39.937Z,9.67
2019-02-20T23:20:11.364Z,10.13
2019-02-20T23:22:41.589Z,9.47
2019-02-20T23:25:10.885Z,9.80
2019-02-20T23:27:40.123Z,9.63
2019-02-20T23:30:12.997Z,9.60
2019-02-20T23:32:43.321Z,10.67
2019-02-20T23:35:14.846Z,10.83
2019-02-20T23:37:44.072Z,10.23
2019-02-20T23:40:13.195Z,12.40
2019-02-20T23:42:45.521Z,11.67
2019-02-20T23:45:16.280Z,10.90
2019-02-20T23:47:45.475Z,11.43
2019-02-20T23:50:14.674Z,9.67
2019-02-20T23:52:45.132Z,10.27
2019-02-20T23:55:17.706Z,10.87
2019-02-20T23:57:46.994Z,10.80
